sensor_id;sensor_type;location;lat;lon;timestamp;P1;durP1;ratioP1;P2;durP2;ratioP2
65279;SDS011;51878;55.748;48.742;2023-02-28T00:00:13;4.72;;;3.85;;
65279;SDS011;51878;55.748;48.742;2023-02-28T00:05:17;6.47;;;4.18;;
65279;SDS011;51878;55.748;48.742;2023-02-28T00:10:22;4.68;;;3.75;;
65279;SDS011;51878;55.748;48.742;2023-02-28T00:15:30;7.37;;;4.43;;
65279;SDS011;51878;55.748;48.742;2023-02-28T00:20:33;5.32;;;3.83;;
65279;SDS011;51878;55.748;48.742;2023-02-28T00:25:35;8.05;;;4.88;;
65279;SDS011;51878;55.748;48.742;2023-02-28T00:30:37;4.60;;;3.53;;
65279;SDS011;51878;55.748;48.742;2023-02-28T00:35:39;4.65;;;3.13;;
65279;SDS011;51878;55.748;48.742;2023-02-28T00:40:42;5.05;;;3.22;;
65279;SDS011;51878;55.748;48.742;2023-02-28T00:45:44;7.55;;;3.72;;
65279;SDS011;51878;55.748;48.742;2023-02-28T00:50:48;5.18;;;3.78;;
65279;SDS011;51878;55.748;48.742;2023-02-28T00:55:51;4.35;;;3.63;;
65279;SDS011;51878;55.748;48.742;2023-02-28T01:00:53;3.53;;;2.67;;
65279;SDS011;51878;55.748;48.742;2023-02-28T01:05:56;6.07;;;4.25;;
65279;SDS011;51878;55.748;48.742;2023-02-28T01:11:10;8.30;;;5.32;;
65279;SDS011;51878;55.748;48.742;2023-02-28T01:16:13;5.97;;;3.70;;
65279;SDS011;51878;55.748;48.742;2023-02-28T01:21:17;4.40;;;3.55;;
65279;SDS011;51878;55.748;48.742;2023-02-28T01:26:20;6.35;;;4.45;;
65279;SDS011;51878;55.748;48.742;2023-02-28T01:31:24;6.35;;;3.78;;
65279;SDS011;51878;55.748;48.742;2023-02-28T01:36:27;6.70;;;4.55;;
65279;SDS011;51878;55.748;48.742;2023-02-28T01:41:31;2.58;;;2.33;;
65279;SDS011;51878;55.748;48.742;2023-02-28T01:46:35;7.50;;;4.60;;
65279;SDS011;51878;55.748;48.742;2023-02-28T01:56:59;4.35;;;3.03;;
65279;SDS011;51878;55.748;48.742;2023-02-28T02:02:05;4.82;;;3.25;;
65279;SDS011;51878;55.748;48.742;2023-02-28T02:07:08;4.13;;;3.13;;
65279;SDS011;51878;55.748;48.742;2023-02-28T02:12:24;3.28;;;2.55;;
65279;SDS011;51878;55.748;48.742;2023-02-28T02:17:48;5.15;;;3.42;;
65279;SDS011;51878;55.748;48.742;2023-02-28T02:23:56;4.47;;;3.17;;
65279;SDS011;51878;55.748;48.742;2023-02-28T02:28:53;5.07;;;3.63;;
65279;SDS011;51878;55.748;48.742;2023-02-28T02:44:43;3.65;;;2.33;;
65279;SDS011;51878;55.748;48.742;2023-02-28T02:49:51;5.97;;;3.08;;
65279;SDS011;51878;55.748;48.742;2023-02-28T02:54:56;7.57;;;3.80;;
65279;SDS011;51878;55.748;48.742;2023-02-28T03:00:03;5.85;;;2.97;;
65279;SDS011;51878;55.748;48.742;2023-02-28T03:05:20;3.53;;;2.40;;
65279;SDS011;51878;55.748;48.742;2023-02-28T03:10:38;3.97;;;2.20;;
65279;SDS011;51878;55.748;48.742;2023-02-28T03:16:05;2.25;;;2.05;;
65279;SDS011;51878;55.748;48.742;2023-02-28T03:21:17;2.38;;;1.90;;
65279;SDS011;51878;55.748;48.742;2023-02-28T03:26:28;3.35;;;2.35;;
65279;SDS011;51878;55.748;48.742;2023-02-28T03:31:38;4.10;;;3.08;;
65279;SDS011;51878;55.748;48.742;2023-02-28T03:36:44;2.58;;;2.22;;
65279;SDS011;51878;55.748;48.742;2023-02-28T03:41:57;4.22;;;2.75;;
65279;SDS011;51878;55.748;48.742;2023-02-28T03:47:47;6.05;;;2.33;;
65279;SDS011;51878;55.748;48.742;2023-02-28T03:52:35;2.45;;;2.17;;
65279;SDS011;51878;55.748;48.742;2023-02-28T04:02:52;3.78;;;2.55;;
65279;SDS011;51878;55.748;48.742;2023-02-28T04:08:03;6.00;;;3.58;;
65279;SDS011;51878;55.748;48.742;2023-02-28T04:13:09;2.13;;;1.83;;
65279;SDS011;51878;55.748;48.742;2023-02-28T04:18:11;4.28;;;2.92;;
65279;SDS011;51878;55.748;48.742;2023-02-28T04:23:13;3.60;;;2.70;;
65279;SDS011;51878;55.748;48.742;2023-02-28T04:28:15;2.72;;;2.38;;
65279;SDS011;51878;55.748;48.742;2023-02-28T04:33:17;2.78;;;2.17;;
65279;SDS011;51878;55.748;48.742;2023-02-28T04:38:19;3.00;;;2.10;;
65279;SDS011;51878;55.748;48.742;2023-02-28T04:43:21;4.43;;;2.70;;
65279;SDS011;51878;55.748;48.742;2023-02-28T04:48:24;4.25;;;2.72;;
65279;SDS011;51878;55.748;48.742;2023-02-28T04:53:28;3.85;;;2.80;;
65279;SDS011;51878;55.748;48.742;2023-02-28T04:58:31;6.40;;;3.53;;
65279;SDS011;51878;55.748;48.742;2023-02-28T05:03:33;4.57;;;3.40;;
65279;SDS011;51878;55.748;48.742;2023-02-28T05:08:36;7.85;;;4.18;;
65279;SDS011;51878;55.748;48.742;2023-02-28T05:13:38;5.38;;;3.38;;
65279;SDS011;51878;55.748;48.742;2023-02-28T05:18:40;4.20;;;3.10;;
65279;SDS011;51878;55.748;48.742;2023-02-28T05:23:42;4.93;;;3.42;;
65279;SDS011;51878;55.748;48.742;2023-02-28T05:28:44;3.70;;;2.75;;
65279;SDS011;51878;55.748;48.742;2023-02-28T05:33:46;4.50;;;3.42;;
65279;SDS011;51878;55.748;48.742;2023-02-28T05:38:49;4.15;;;3.08;;
65279;SDS011;51878;55.748;48.742;2023-02-28T05:43:51;6.65;;;3.75;;
65279;SDS011;51878;55.748;48.742;2023-02-28T05:48:54;2.95;;;2.22;;
65279;SDS011;51878;55.748;48.742;2023-02-28T05:54:00;4.45;;;3.20;;
65279;SDS011;51878;55.748;48.742;2023-02-28T05:59:03;3.95;;;2.92;;
65279;SDS011;51878;55.748;48.742;2023-02-28T06:04:06;6.10;;;2.70;;
65279;SDS011;51878;55.748;48.742;2023-02-28T06:09:17;5.55;;;3.15;;
65279;SDS011;51878;55.748;48.742;2023-02-28T06:14:20;3.33;;;2.78;;
65279;SDS011;51878;55.748;48.742;2023-02-28T06:19:22;3.53;;;2.60;;
65279;SDS011;51878;55.748;48.742;2023-02-28T06:24:27;5.25;;;2.70;;
65279;SDS011;51878;55.748;48.742;2023-02-28T06:29:33;2.72;;;2.05;;
65279;SDS011;51878;55.748;48.742;2023-02-28T06:34:36;7.65;;;3.10;;
65279;SDS011;51878;55.748;48.742;2023-02-28T06:39:38;3.30;;;2.45;;
65279;SDS011;51878;55.748;48.742;2023-02-28T06:44:40;3.17;;;2.30;;
65279;SDS011;51878;55.748;48.742;2023-02-28T06:49:44;3.00;;;2.30;;
65279;SDS011;51878;55.748;48.742;2023-02-28T06:54:46;4.32;;;2.33;;
65279;SDS011;51878;55.748;48.742;2023-02-28T06:59:48;4.07;;;2.25;;
65279;SDS011;51878;55.748;48.742;2023-02-28T07:04:51;4.43;;;2.58;;
65279;SDS011;51878;55.748;48.742;2023-02-28T07:09:53;2.80;;;2.05;;
65279;SDS011;51878;55.748;48.742;2023-02-28T07:14:55;3.30;;;2.40;;
65279;SDS011;51878;55.748;48.742;2023-02-28T07:19:57;4.20;;;2.65;;
65279;SDS011;51878;55.748;48.742;2023-02-28T07:25:01;4.07;;;2.53;;
65279;SDS011;51878;55.748;48.742;2023-02-28T07:30:04;3.03;;;2.17;;
65279;SDS011;51878;55.748;48.742;2023-02-28T07:35:09;2.83;;;2.03;;
65279;SDS011;51878;55.748;48.742;2023-02-28T07:40:14;3.67;;;2.25;;
65279;SDS011;51878;55.748;48.742;2023-02-28T07:45:19;2.53;;;2.03;;
65279;SDS011;51878;55.748;48.742;2023-02-28T07:50:21;3.10;;;1.95;;
65279;SDS011;51878;55.748;48.742;2023-02-28T07:55:24;2.72;;;2.10;;
65279;SDS011;51878;55.748;48.742;2023-02-28T08:00:27;3.30;;;1.92;;
65279;SDS011;51878;55.748;48.742;2023-02-28T08:05:30;3.88;;;2.38;;
65279;SDS011;51878;55.748;48.742;2023-02-28T08:10:32;2.15;;;1.95;;
65279;SDS011;51878;55.748;48.742;2023-02-28T08:15:35;3.50;;;1.70;;
65279;SDS011;51878;55.748;48.742;2023-02-28T08:20:40;2.75;;;1.73;;
65279;SDS011;51878;55.748;48.742;2023-02-28T08:25:43;4.22;;;1.60;;
65279;SDS011;51878;55.748;48.742;2023-02-28T08:30:45;2.40;;;1.40;;
65279;SDS011;51878;55.748;48.742;2023-02-28T08:35:47;2.72;;;1.60;;
65279;SDS011;51878;55.748;48.742;2023-02-28T08:40:49;2.60;;;1.52;;
65279;SDS011;51878;55.748;48.742;2023-02-28T08:45:52;2.42;;;1.73;;
65279;SDS011;51878;55.748;48.742;2023-02-28T08:50:55;2.20;;;1.38;;
65279;SDS011;51878;55.748;48.742;2023-02-28T08:56:14;1.83;;;1.63;;
65279;SDS011;51878;55.748;48.742;2023-02-28T09:01:21;3.53;;;2.00;;
65279;SDS011;51878;55.748;48.742;2023-02-28T09:06:26;2.17;;;1.90;;
65279;SDS011;51878;55.748;48.742;2023-02-28T09:11:29;1.70;;;1.55;;
65279;SDS011;51878;55.748;48.742;2023-02-28T09:16:31;1.55;;;1.40;;
65279;SDS011;51878;55.748;48.742;2023-02-28T09:21:37;2.58;;;1.60;;
65279;SDS011;51878;55.748;48.742;2023-02-28T09:26:39;3.30;;;2.10;;
65279;SDS011;51878;55.748;48.742;2023-02-28T09:31:47;11.75;;;1.95;;
65279;SDS011;51878;55.748;48.742;2023-02-28T09:36:50;2.20;;;1.80;;
65279;SDS011;51878;55.748;48.742;2023-02-28T09:41:56;2.75;;;1.80;;
65279;SDS011;51878;55.748;48.742;2023-02-28T09:47:00;1.58;;;1.45;;
65279;SDS011;51878;55.748;48.742;2023-02-28T09:52:14;2.13;;;1.50;;
65279;SDS011;51878;55.748;48.742;2023-02-28T10:08:05;2.05;;;1.70;;
65279;SDS011;51878;55.748;48.742;2023-02-28T10:13:33;2.67;;;2.00;;
65279;SDS011;51878;55.748;48.742;2023-02-28T10:18:40;2.70;;;1.52;;
65279;SDS011;51878;55.748;48.742;2023-02-28T10:23:48;2.92;;;1.70;;
65279;SDS011;51878;55.748;48.742;2023-02-28T10:28:52;2.45;;;2.10;;
65279;SDS011;51878;55.748;48.742;2023-02-28T10:33:54;3.72;;;2.08;;
65279;SDS011;51878;55.748;48.742;2023-02-28T10:38:57;1.52;;;1.42;;
65279;SDS011;51878;55.748;48.742;2023-02-28T10:49:26;2.60;;;1.75;;
65279;SDS011;51878;55.748;48.742;2023-02-28T10:54:31;2.10;;;1.80;;
65279;SDS011;51878;55.748;48.742;2023-02-28T10:59:39;2.05;;;1.83;;
65279;SDS011;51878;55.748;48.742;2023-02-28T11:04:41;2.75;;;1.95;;
65279;SDS011;51878;55.748;48.742;2023-02-28T11:09:50;2.25;;;1.52;;
65279;SDS011;51878;55.748;48.742;2023-02-28T11:14:56;2.35;;;1.63;;
65279;SDS011;51878;55.748;48.742;2023-02-28T11:20:04;1.80;;;1.65;;
65279;SDS011;51878;55.748;48.742;2023-02-28T11:25:09;2.53;;;1.67;;
65279;SDS011;51878;55.748;48.742;2023-02-28T11:35:38;4.55;;;2.50;;
65279;SDS011;51878;55.748;48.742;2023-02-28T11:51:28;10.48;;;1.45;;
65279;SDS011;51878;55.748;48.742;2023-02-28T11:56:37;2.25;;;1.52;;
65279;SDS011;51878;55.748;48.742;2023-02-28T12:12:22;1.83;;;1.60;;
65279;SDS011;51878;55.748;48.742;2023-02-28T12:17:55;2.40;;;1.42;;
65279;SDS011;51878;55.748;48.742;2023-02-28T12:23:15;1.60;;;1.40;;
65279;SDS011;51878;55.748;48.742;2023-02-28T12:28:44;2.33;;;1.45;;
65279;SDS011;51878;55.748;48.742;2023-02-28T12:33:51;1.60;;;1.50;;
65279;SDS011;51878;55.748;48.742;2023-02-28T12:38:56;1.83;;;1.70;;
65279;SDS011;51878;55.748;48.742;2023-02-28T12:44:04;2.03;;;1.60;;
65279;SDS011;51878;55.748;48.742;2023-02-28T12:49:15;2.97;;;1.60;;
65279;SDS011;51878;55.748;48.742;2023-02-28T12:54:25;2.42;;;1.50;;
65279;SDS011;51878;55.748;48.742;2023-02-28T12:59:41;2.97;;;2.58;;
65279;SDS011;51878;55.748;48.742;2023-02-28T13:10:50;0.90;;;0.90;;
65279;SDS011;51878;55.748;48.742;2023-02-28T13:16:17;2.67;;;1.50;;
65279;SDS011;51878;55.748;48.742;2023-02-28T13:21:26;2.85;;;2.05;;
65279;SDS011;51878;55.748;48.742;2023-02-28T13:31:32;0.95;;;0.95;;
65279;SDS011;51878;55.748;48.742;2023-02-28T13:52:49;1.85;;;1.55;;
65279;SDS011;51878;55.748;48.742;2023-02-28T14:08:20;3.53;;;1.73;;
65279;SDS011;51878;55.748;48.742;2023-02-28T14:18:50;1.50;;;1.38;;
65279;SDS011;51878;55.748;48.742;2023-02-28T14:29:29;3.30;;;1.42;;
65279;SDS011;51878;55.748;48.742;2023-02-28T14:35:09;1.95;;;1.40;;
65279;SDS011;51878;55.748;48.742;2023-02-28T14:40:33;1.80;;;1.45;;
65279;SDS011;51878;55.748;48.742;2023-02-28T14:45:36;1.40;;;1.30;;
65279;SDS011;51878;55.748;48.742;2023-02-28T14:50:39;4.82;;;1.88;;
65279;SDS011;51878;55.748;48.742;2023-02-28T14:55:43;1.98;;;1.27;;
65279;SDS011;51878;55.748;48.742;2023-02-28T15:00:48;1.83;;;1.52;;
65279;SDS011;51878;55.748;48.742;2023-02-28T15:05:56;1.92;;;1.55;;
65279;SDS011;51878;55.748;48.742;2023-02-28T15:11:04;1.52;;;1.25;;
65279;SDS011;51878;55.748;48.742;2023-02-28T15:16:10;1.70;;;1.52;;
65279;SDS011;51878;55.748;48.742;2023-02-28T15:21:21;2.03;;;1.77;;
65279;SDS011;51878;55.748;48.742;2023-02-28T15:26:27;4.53;;;1.50;;
65279;SDS011;51878;55.748;48.742;2023-02-28T15:31:35;1.83;;;1.58;;
65279;SDS011;51878;55.748;48.742;2023-02-28T15:36:57;2.85;;;2.13;;
65279;SDS011;51878;55.748;48.742;2023-02-28T15:42:18;3.92;;;1.80;;
65279;SDS011;51878;55.748;48.742;2023-02-28T15:47:22;1.75;;;1.63;;
65279;SDS011;51878;55.748;48.742;2023-02-28T15:57:43;2.47;;;1.73;;
65279;SDS011;51878;55.748;48.742;2023-02-28T16:02:47;4.25;;;2.15;;
65279;SDS011;51878;55.748;48.742;2023-02-28T16:07:50;3.35;;;2.30;;
65279;SDS011;51878;55.748;48.742;2023-02-28T16:12:52;2.65;;;2.10;;
65279;SDS011;51878;55.748;48.742;2023-02-28T16:17:56;5.47;;;2.67;;
65279;SDS011;51878;55.748;48.742;2023-02-28T16:22:59;2.40;;;2.20;;
65279;SDS011;51878;55.748;48.742;2023-02-28T16:28:03;2.45;;;2.22;;
65279;SDS011;51878;55.748;48.742;2023-02-28T16:33:14;3.72;;;2.72;;
65279;SDS011;51878;55.748;48.742;2023-02-28T16:38:16;3.90;;;2.33;;
65279;SDS011;51878;55.748;48.742;2023-02-28T16:43:18;4.82;;;2.63;;
65279;SDS011;51878;55.748;48.742;2023-02-28T16:48:24;2.50;;;1.95;;
65279;SDS011;51878;55.748;48.742;2023-02-28T16:53:26;2.42;;;1.80;;
65279;SDS011;51878;55.748;48.742;2023-02-28T16:58:31;2.00;;;1.80;;
65279;SDS011;51878;55.748;48.742;2023-02-28T17:03:37;2.80;;;1.80;;
65279;SDS011;51878;55.748;48.742;2023-02-28T17:08:39;4.13;;;2.63;;
65279;SDS011;51878;55.748;48.742;2023-02-28T17:13:41;4.32;;;2.40;;
65279;SDS011;51878;55.748;48.742;2023-02-28T17:18:43;3.78;;;2.60;;
65279;SDS011;51878;55.748;48.742;2023-02-28T17:23:45;3.00;;;2.28;;
65279;SDS011;51878;55.748;48.742;2023-02-28T17:28:48;3.22;;;2.15;;
65279;SDS011;51878;55.748;48.742;2023-02-28T17:33:51;2.83;;;2.22;;
65279;SDS011;51878;55.748;48.742;2023-02-28T17:38:54;6.35;;;3.08;;
65279;SDS011;51878;55.748;48.742;2023-02-28T17:44:00;4.82;;;2.60;;
65279;SDS011;51878;55.748;48.742;2023-02-28T17:49:02;6.43;;;2.55;;
65279;SDS011;51878;55.748;48.742;2023-02-28T17:54:04;6.00;;;3.33;;
65279;SDS011;51878;55.748;48.742;2023-02-28T17:59:08;7.95;;;3.50;;
65279;SDS011;51878;55.748;48.742;2023-02-28T18:04:15;4.93;;;3.38;;
65279;SDS011;51878;55.748;48.742;2023-02-28T18:10:06;3.83;;;2.33;;
65279;SDS011;51878;55.748;48.742;2023-02-28T18:15:14;4.10;;;2.70;;
65279;SDS011;51878;55.748;48.742;2023-02-28T18:20:17;4.75;;;3.00;;
65279;SDS011;51878;55.748;48.742;2023-02-28T18:25:20;21.40;;;3.30;;
65279;SDS011;51878;55.748;48.742;2023-02-28T18:30:30;4.90;;;3.13;;
65279;SDS011;51878;55.748;48.742;2023-02-28T18:35:34;4.38;;;2.92;;
65279;SDS011;51878;55.748;48.742;2023-02-28T18:40:36;5.57;;;3.65;;
65279;SDS011;51878;55.748;48.742;2023-02-28T18:45:38;2.58;;;1.83;;
65279;SDS011;51878;55.748;48.742;2023-02-28T18:50:40;6.05;;;3.60;;
65279;SDS011;51878;55.748;48.742;2023-02-28T18:55:43;4.93;;;3.88;;
65279;SDS011;51878;55.748;48.742;2023-02-28T19:00:46;4.88;;;3.22;;
65279;SDS011;51878;55.748;48.742;2023-02-28T19:05:48;4.50;;;3.20;;
65279;SDS011;51878;55.748;48.742;2023-02-28T19:10:55;7.05;;;3.83;;
65279;SDS011;51878;55.748;48.742;2023-02-28T19:16:01;6.35;;;2.92;;
65279;SDS011;51878;55.748;48.742;2023-02-28T19:21:07;6.45;;;3.58;;
65279;SDS011;51878;55.748;48.742;2023-02-28T19:26:14;7.43;;;3.70;;
65279;SDS011;51878;55.748;48.742;2023-02-28T19:31:19;4.28;;;3.00;;
65279;SDS011;51878;55.748;48.742;2023-02-28T19:36:23;3.92;;;2.58;;
65279;SDS011;51878;55.748;48.742;2023-02-28T19:41:25;4.43;;;3.05;;
65279;SDS011;51878;55.748;48.742;2023-02-28T19:46:27;6.38;;;3.13;;
65279;SDS011;51878;55.748;48.742;2023-02-28T19:51:29;8.82;;;4.10;;
65279;SDS011;51878;55.748;48.742;2023-02-28T19:56:31;3.80;;;2.80;;
65279;SDS011;51878;55.748;48.742;2023-02-28T20:01:34;5.00;;;3.70;;
65279;SDS011;51878;55.748;48.742;2023-02-28T20:06:37;5.85;;;3.58;;
65279;SDS011;51878;55.748;48.742;2023-02-28T20:11:42;4.97;;;3.08;;
65279;SDS011;51878;55.748;48.742;2023-02-28T20:16:46;4.18;;;2.67;;
65279;SDS011;51878;55.748;48.742;2023-02-28T20:21:48;4.35;;;2.70;;
65279;SDS011;51878;55.748;48.742;2023-02-28T20:26:51;4.28;;;2.85;;
65279;SDS011;51878;55.748;48.742;2023-02-28T20:31:53;5.18;;;2.92;;
65279;SDS011;51878;55.748;48.742;2023-02-28T20:36:56;4.82;;;2.78;;
65279;SDS011;51878;55.748;48.742;2023-02-28T20:41:59;5.97;;;2.88;;
65279;SDS011;51878;55.748;48.742;2023-02-28T20:47:01;1.80;;;1.67;;
65279;SDS011;51878;55.748;48.742;2023-02-28T20:52:04;4.65;;;2.20;;
65279;SDS011;51878;55.748;48.742;2023-02-28T20:57:06;4.43;;;2.42;;
65279;SDS011;51878;55.748;48.742;2023-02-28T21:02:09;2.55;;;1.88;;
65279;SDS011;51878;55.748;48.742;2023-02-28T21:07:15;4.50;;;2.40;;
65279;SDS011;51878;55.748;48.742;2023-02-28T21:12:17;2.50;;;1.88;;
65279;SDS011;51878;55.748;48.742;2023-02-28T21:17:19;2.42;;;1.83;;
65279;SDS011;51878;55.748;48.742;2023-02-28T21:22:21;5.10;;;2.17;;
65279;SDS011;51878;55.748;48.742;2023-02-28T21:27:23;2.03;;;1.70;;
65279;SDS011;51878;55.748;48.742;2023-02-28T21:32:25;4.15;;;2.20;;
65279;SDS011;51878;55.748;48.742;2023-02-28T21:37:27;3.33;;;2.10;;
65279;SDS011;51878;55.748;48.742;2023-02-28T21:42:29;3.13;;;1.80;;
65279;SDS011;51878;55.748;48.742;2023-02-28T21:47:31;2.75;;;2.00;;
65279;SDS011;51878;55.748;48.742;2023-02-28T21:52:34;3.28;;;2.45;;
65279;SDS011;51878;55.748;48.742;2023-02-28T21:57:36;2.25;;;1.67;;
65279;SDS011;51878;55.748;48.742;2023-02-28T22:02:38;2.97;;;2.20;;
65279;SDS011;51878;55.748;48.742;2023-02-28T22:08:10;2.88;;;2.20;;
65279;SDS011;51878;55.748;48.742;2023-02-28T22:13:12;1.95;;;1.30;;
65279;SDS011;51878;55.748;48.742;2023-02-28T22:18:15;2.50;;;1.70;;
65279;SDS011;51878;55.748;48.742;2023-02-28T22:23:17;3.45;;;2.28;;
65279;SDS011;51878;55.748;48.742;2023-02-28T22:28:20;4.22;;;2.50;;
65279;SDS011;51878;55.748;48.742;2023-02-28T22:33:23;2.95;;;1.98;;
65279;SDS011;51878;55.748;48.742;2023-02-28T22:38:27;3.13;;;2.03;;
65279;SDS011;51878;55.748;48.742;2023-02-28T22:43:30;2.53;;;2.00;;
65279;SDS011;51878;55.748;48.742;2023-02-28T22:48:33;3.45;;;2.13;;
65279;SDS011;51878;55.748;48.742;2023-02-28T22:53:36;3.38;;;2.03;;
65279;SDS011;51878;55.748;48.742;2023-02-28T22:58:39;2.78;;;2.13;;
65279;SDS011;51878;55.748;48.742;2023-02-28T23:03:43;3.30;;;2.10;;
65279;SDS011;51878;55.748;48.742;2023-02-28T23:08:46;2.65;;;2.05;;
65279;SDS011;51878;55.748;48.742;2023-02-28T23:13:49;2.75;;;1.73;;
65279;SDS011;51878;55.748;48.742;2023-02-28T23:19:01;3.33;;;2.22;;
65279;SDS011;51878;55.748;48.742;2023-02-28T23:24:06;3.80;;;2.47;;
65279;SDS011;51878;55.748;48.742;2023-02-28T23:29:12;3.65;;;2.17;;
65279;SDS011;51878;55.748;48.742;2023-02-28T23:34:16;2.72;;;2.05;;
65279;SDS011;51878;55.748;48.742;2023-02-28T23:39:27;3.08;;;2.05;;
65279;SDS011;51878;55.748;48.742;2023-02-28T23:44:30;5.93;;;2.63;;
65279;SDS011;51878;55.748;48.742;2023-02-28T23:49:32;2.58;;;1.92;;
65279;SDS011;51878;55.748;48.742;2023-02-28T23:54:35;3.33;;;2.33;;
65279;SDS011;51878;55.748;48.742;2023-02-28T23:59:37;3.65;;;2.67;;
